sensor_id;sensor_type;location;lat;lon;timestamp;pressure;altitude;pressure_sealevel;temperature;humidity
25650;BME280;13505;45.196;5.696;2023-09-30T04:33:58;99928.63;;;20.33;74.39
25650;BME280;13505;45.196;5.696;2023-09-30T04:38:48;99928.53;;;20.35;75.17
25650;BME280;13505;45.196;5.696;2023-09-30T04:43:39;99925.47;;;20.28;75.81
25650;BME280;13505;45.196;5.696;2023-09-30T04:48:29;99932.75;;;20.26;75.33
25650;BME280;13505;45.196;5.696;2023-09-30T04:53:19;99923.81;;;20.14;76.01
25650;BME280;13505;45.196;5.696;2023-09-30T04:58:10;99932.91;;;19.74;78.29
25650;BME280;13505;45.196;5.696;2023-09-30T05:03:01;99939.03;;;19.63;78.61
25650;BME280;13505;45.196;5.696;2023-09-30T05:07:52;99926.03;;;19.96;76.69
25650;BME280;13505;45.196;5.696;2023-09-30T05:12:43;99942.06;;;20.09;75.63
25650;BME280;13505;45.196;5.696;2023-09-30T05:17:35;99948.00;;;20.37;74.16
25650;BME280;13505;45.196;5.696;2023-09-30T05:22:26;99956.34;;;20.45;73.53
25650;BME280;13505;45.196;5.696;2023-09-30T05:27:17;99954.31;;;20.60;72.03
25650;BME280;13505;45.196;5.696;2023-09-30T05:32:07;99956.75;;;20.63;71.29
25650;BME280;13505;45.196;5.696;2023-09-30T05:36:58;99959.44;;;20.63;71.58
25650;BME280;13505;45.196;5.696;2023-09-30T05:41:49;99960.31;;;20.64;71.47
25650;BME280;13505;45.196;5.696;2023-09-30T05:46:40;99979.81;;;20.66;71.37
25650;BME280;13505;45.196;5.696;2023-09-30T05:51:30;99971.69;;;20.79;70.37
25650;BME280;13505;45.196;5.696;2023-09-30T05:56:21;99980.81;;;20.76;70.79
25650;BME280;13505;45.196;5.696;2023-09-30T06:01:11;99991.28;;;20.80;70.69
25650;BME280;13505;45.196;5.696;2023-09-30T06:06:02;99991.25;;;20.92;69.82
25650;BME280;13505;45.196;5.696;2023-09-30T06:10:53;99993.47;;;20.74;70.61
25650;BME280;13505;45.196;5.696;2023-09-30T06:15:44;99987.50;;;20.71;71.85
25650;BME280;13505;45.196;5.696;2023-09-30T06:20:36;99982.63;;;20.76;71.68
25650;BME280;13505;45.196;5.696;2023-09-30T06:25:27;99987.56;;;20.82;70.79
25650;BME280;13505;45.196;5.696;2023-09-30T06:30:18;100003.34;;;20.98;69.98
25650;BME280;13505;45.196;5.696;2023-09-30T06:35:12;100003.56;;;20.95;70.42
25650;BME280;13505;45.196;5.696;2023-09-30T06:40:03;99989.81;;;21.00;69.35
25650;BME280;13505;45.196;5.696;2023-09-30T06:44:54;99997.38;;;21.06;69.45
25650;BME280;13505;45.196;5.696;2023-09-30T06:49:44;100003.34;;;20.98;69.83
25650;BME280;13505;45.196;5.696;2023-09-30T06:54:36;100005.56;;;21.04;71.38
25650;BME280;13505;45.196;5.696;2023-09-30T06:59:27;100008.00;;;21.08;69.83
25650;BME280;13505;45.196;5.696;2023-09-30T07:04:17;100015.41;;;21.04;70.23
25650;BME280;13505;45.196;5.696;2023-09-30T07:09:08;100024.91;;;21.08;70.41
25650;BME280;13505;45.196;5.696;2023-09-30T07:14:01;100029.81;;;21.14;69.71
25650;BME280;13505;45.196;5.696;2023-09-30T07:18:51;100044.34;;;21.23;70.01
25650;BME280;13505;45.196;5.696;2023-09-30T07:23:41;100043.25;;;21.26;69.60
25650;BME280;13505;45.196;5.696;2023-09-30T07:28:33;100043.16;;;21.27;69.91
25650;BME280;13505;45.196;5.696;2023-09-30T07:33:23;100038.53;;;21.29;70.49
25650;BME280;13505;45.196;5.696;2023-09-30T07:38:14;100045.22;;;21.35;70.09
25650;BME280;13505;45.196;5.696;2023-09-30T07:43:04;100038.53;;;21.41;69.99
25650;BME280;13505;45.196;5.696;2023-09-30T07:47:55;100042.56;;;21.46;69.53
25650;BME280;13505;45.196;5.696;2023-09-30T07:52:45;100041.97;;;21.54;69.03
25650;BME280;13505;45.196;5.696;2023-09-30T07:57:36;100047.22;;;21.56;68.51
25650;BME280;13505;45.196;5.696;2023-09-30T08:02:28;100047.59;;;21.63;69.08
25650;BME280;13505;45.196;5.696;2023-09-30T08:07:23;100047.69;;;21.50;68.71
25650;BME280;13505;45.196;5.696;2023-09-30T08:12:13;100044.66;;;21.66;68.77
25650;BME280;13505;45.196;5.696;2023-09-30T08:17:04;100052.16;;;21.73;68.31
25650;BME280;13505;45.196;5.696;2023-09-30T08:21:54;100050.09;;;21.88;68.17
25650;BME280;13505;45.196;5.696;2023-09-30T08:26:44;100042.59;;;22.03;68.41
25650;BME280;13505;45.196;5.696;2023-09-30T08:31:35;100046.13;;;22.15;67.72
25650;BME280;13505;45.196;5.696;2023-09-30T08:36:25;100027.31;;;22.27;66.68
25650;BME280;13505;45.196;5.696;2023-09-30T08:41:31;100032.09;;;21.66;69.02
25650;BME280;13505;45.196;5.696;2023-09-30T08:46:24;100033.69;;;22.14;68.46
25650;BME280;13505;45.196;5.696;2023-09-30T08:51:14;100033.75;;;22.47;66.18
25650;BME280;13505;45.196;5.696;2023-09-30T08:56:06;100040.44;;;22.64;65.36
25650;BME280;13505;45.196;5.696;2023-09-30T09:01:00;100039.75;;;22.83;64.06
25650;BME280;13505;45.196;5.696;2023-09-30T09:05:57;100035.88;;;22.97;63.32
25650;BME280;13505;45.196;5.696;2023-09-30T09:10:54;100031.88;;;23.13;63.35
25650;BME280;13505;45.196;5.696;2023-09-30T09:15:46;100031.81;;;23.24;62.12
25650;BME280;13505;45.196;5.696;2023-09-30T09:20:36;100032.50;;;23.38;61.31
25650;BME280;13505;45.196;5.696;2023-09-30T09:25:27;100036.13;;;23.79;60.48
25650;BME280;13505;45.196;5.696;2023-09-30T09:30:21;100021.19;;;23.44;60.60
25650;BME280;13505;45.196;5.696;2023-09-30T09:35:12;100028.88;;;23.49;60.51
25650;BME280;13505;45.196;5.696;2023-09-30T09:40:03;100027.16;;;24.10;56.71
25650;BME280;13505;45.196;5.696;2023-09-30T09:45:02;100011.31;;;25.25;54.11
25650;BME280;13505;45.196;5.696;2023-09-30T09:49:53;100019.00;;;24.41;54.46
25650;BME280;13505;45.196;5.696;2023-09-30T09:54:45;100016.97;;;25.22;48.53
25650;BME280;13505;45.196;5.696;2023-09-30T09:59:36;100014.13;;;26.09;43.69
25650;BME280;13505;45.196;5.696;2023-09-30T10:04:27;100003.00;;;26.40;42.36
25650;BME280;13505;45.196;5.696;2023-09-30T10:09:18;100000.91;;;26.70;41.50
25650;BME280;13505;45.196;5.696;2023-09-30T10:14:29;99995.94;;;27.02;40.37
25650;BME280;13505;45.196;5.696;2023-09-30T10:19:23;99992.97;;;27.40;40.82
25650;BME280;13505;45.196;5.696;2023-09-30T10:29:13;99995.75;;;27.91;39.37
25650;BME280;13505;45.196;5.696;2023-09-30T10:38:54;99989.03;;;27.95;38.14
25650;BME280;13505;45.196;5.696;2023-09-30T10:43:45;99990.41;;;28.08;38.59
25650;BME280;13505;45.196;5.696;2023-09-30T10:48:36;99980.25;;;28.10;38.50
25650;BME280;13505;45.196;5.696;2023-09-30T10:53:31;99976.41;;;28.21;38.56
25650;BME280;13505;45.196;5.696;2023-09-30T10:58:21;99966.94;;;28.50;37.30
25650;BME280;13505;45.196;5.696;2023-09-30T11:03:12;99970.19;;;28.70;37.23
25650;BME280;13505;45.196;5.696;2023-09-30T11:08:03;99965.50;;;27.61;39.15
25650;BME280;13505;45.196;5.696;2023-09-30T11:12:57;99967.28;;;28.47;37.58
25650;BME280;13505;45.196;5.696;2023-09-30T11:17:47;99963.88;;;28.61;37.76
25650;BME280;13505;45.196;5.696;2023-09-30T11:22:38;99964.72;;;28.45;36.55
25650;BME280;13505;45.196;5.696;2023-09-30T11:27:29;99958.09;;;28.23;38.12
25650;BME280;13505;45.196;5.696;2023-09-30T11:32:39;99958.81;;;28.58;37.12
25650;BME280;13505;45.196;5.696;2023-09-30T11:37:33;99948.66;;;28.85;36.09
25650;BME280;13505;45.196;5.696;2023-09-30T11:42:23;99942.16;;;29.11;36.96
25650;BME280;13505;45.196;5.696;2023-09-30T11:47:14;99941.16;;;28.46;38.37
25650;BME280;13505;45.196;5.696;2023-09-30T11:52:07;99927.75;;;29.02;36.76
25650;BME280;13505;45.196;5.696;2023-09-30T11:57:02;99918.09;;;28.83;36.51
25650;BME280;13505;45.196;5.696;2023-09-30T12:01:53;99914.72;;;28.89;36.28
25650;BME280;13505;45.196;5.696;2023-09-30T12:06:43;99928.75;;;28.76;36.44
25650;BME280;13505;45.196;5.696;2023-09-30T12:11:33;99914.88;;;28.79;36.44
25650;BME280;13505;45.196;5.696;2023-09-30T12:16:24;99906.06;;;28.86;36.53
25650;BME280;13505;45.196;5.696;2023-09-30T12:21:14;99910.31;;;28.88;37.27
25650;BME280;13505;45.196;5.696;2023-09-30T12:26:10;99907.06;;;28.76;37.44
25650;BME280;13505;45.196;5.696;2023-09-30T12:31:02;99896.88;;;28.95;37.18
25650;BME280;13505;45.196;5.696;2023-09-30T12:35:53;99901.63;;;28.93;36.93
25650;BME280;13505;45.196;5.696;2023-09-30T12:40:43;99898.94;;;28.85;37.21
25650;BME280;13505;45.196;5.696;2023-09-30T12:45:34;99890.63;;;28.94;37.27
25650;BME280;13505;45.196;5.696;2023-09-30T12:50:24;99901.44;;;29.03;36.83
25650;BME280;13505;45.196;5.696;2023-09-30T12:55:14;99899.59;;;28.78;37.56
25650;BME280;13505;45.196;5.696;2023-09-30T13:00:08;99892.69;;;28.84;36.95
25650;BME280;13505;45.196;5.696;2023-09-30T13:04:59;99886.56;;;28.65;37.63
25650;BME280;13505;45.196;5.696;2023-09-30T13:09:50;99879.94;;;28.68;37.27
25650;BME280;13505;45.196;5.696;2023-09-30T13:14:40;99878.06;;;28.68;37.81
25650;BME280;13505;45.196;5.696;2023-09-30T13:19:30;99878.28;;;28.59;38.04
25650;BME280;13505;45.196;5.696;2023-09-30T13:24:23;99875.03;;;28.55;37.68
25650;BME280;13505;45.196;5.696;2023-09-30T13:29:13;99876.22;;;28.36;38.78
25650;BME280;13505;45.196;5.696;2023-09-30T13:34:06;99870.13;;;28.42;38.06
25650;BME280;13505;45.196;5.696;2023-09-30T13:38:56;99866.22;;;28.28;37.92
25650;BME280;13505;45.196;5.696;2023-09-30T13:43:47;99861.31;;;28.32;38.21
25650;BME280;13505;45.196;5.696;2023-09-30T13:48:37;99865.03;;;28.22;38.16
25650;BME280;13505;45.196;5.696;2023-09-30T13:53:27;99855.56;;;28.26;38.67
25650;BME280;13505;45.196;5.696;2023-09-30T13:58:18;99857.09;;;28.21;38.53
25650;BME280;13505;45.196;5.696;2023-09-30T14:03:08;99857.38;;;28.18;38.42
25650;BME280;13505;45.196;5.696;2023-09-30T14:07:59;99864.50;;;28.02;39.71
25650;BME280;13505;45.196;5.696;2023-09-30T14:12:50;99865.28;;;27.69;40.08
25650;BME280;13505;45.196;5.696;2023-09-30T14:17:41;99858.91;;;27.36;40.26
25650;BME280;13505;45.196;5.696;2023-09-30T14:22:31;99867.97;;;27.61;39.35
25650;BME280;13505;45.196;5.696;2023-09-30T14:27:21;99864.78;;;27.74;39.76
25650;BME280;13505;45.196;5.696;2023-09-30T14:32:12;99860.34;;;27.56;40.06
25650;BME280;13505;45.196;5.696;2023-09-30T14:37:02;99852.75;;;27.68;40.30
25650;BME280;13505;45.196;5.696;2023-09-30T14:41:52;99853.75;;;27.59;40.34
25650;BME280;13505;45.196;5.696;2023-09-30T14:46:43;99855.94;;;27.55;40.42
25650;BME280;13505;45.196;5.696;2023-09-30T14:51:35;99857.00;;;27.28;40.59
25650;BME280;13505;45.196;5.696;2023-09-30T14:56:25;99854.28;;;27.28;41.06
25650;BME280;13505;45.196;5.696;2023-09-30T15:01:16;99854.56;;;27.16;41.56
25650;BME280;13505;45.196;5.696;2023-09-30T15:06:06;99858.59;;;27.04;41.43
25650;BME280;13505;45.196;5.696;2023-09-30T15:10:56;99864.47;;;26.99;41.28
25650;BME280;13505;45.196;5.696;2023-09-30T15:15:47;99874.53;;;26.63;41.22
25650;BME280;13505;45.196;5.696;2023-09-30T15:20:38;99866.59;;;26.61;42.00
25650;BME280;13505;45.196;5.696;2023-09-30T15:25:30;99874.38;;;26.38;42.45
25650;BME280;13505;45.196;5.696;2023-09-30T15:30:20;99888.28;;;26.25;42.87
25650;BME280;13505;45.196;5.696;2023-09-30T15:35:10;99871.22;;;26.24;43.12
25650;BME280;13505;45.196;5.696;2023-09-30T15:40:01;99869.78;;;26.02;43.23
25650;BME280;13505;45.196;5.696;2023-09-30T15:44:51;99870.41;;;25.96;43.41
25650;BME280;13505;45.196;5.696;2023-09-30T15:49:46;99869.88;;;25.92;43.62
25650;BME280;13505;45.196;5.696;2023-09-30T15:54:36;99869.59;;;25.67;43.12
25650;BME280;13505;45.196;5.696;2023-09-30T15:59:26;99883.34;;;25.74;43.19
25650;BME280;13505;45.196;5.696;2023-09-30T16:04:17;99880.06;;;25.52;43.39
25650;BME280;13505;45.196;5.696;2023-09-30T16:09:07;99875.97;;;25.38;43.62
25650;BME280;13505;45.196;5.696;2023-09-30T16:13:57;99887.97;;;25.26;44.22
25650;BME280;13505;45.196;5.696;2023-09-30T16:18:48;99892.06;;;25.02;44.15
25650;BME280;13505;45.196;5.696;2023-09-30T16:23:38;99890.53;;;24.79;43.60
25650;BME280;13505;45.196;5.696;2023-09-30T16:28:29;99896.38;;;24.65;44.61
25650;BME280;13505;45.196;5.696;2023-09-30T16:33:19;99892.56;;;24.28;44.94
25650;BME280;13505;45.196;5.696;2023-09-30T16:38:14;99903.22;;;24.10;45.52
25650;BME280;13505;45.196;5.696;2023-09-30T16:43:05;99891.00;;;24.25;45.23
25650;BME280;13505;45.196;5.696;2023-09-30T16:47:55;99900.09;;;24.15;45.51
25650;BME280;13505;45.196;5.696;2023-09-30T16:52:45;99906.91;;;24.09;45.88
25650;BME280;13505;45.196;5.696;2023-09-30T16:57:36;99908.41;;;24.02;46.29
25650;BME280;13505;45.196;5.696;2023-09-30T17:02:26;99909.25;;;23.92;47.25
25650;BME280;13505;45.196;5.696;2023-09-30T17:07:16;99919.84;;;23.84;46.96
25650;BME280;13505;45.196;5.696;2023-09-30T17:12:07;99916.69;;;23.49;47.46
25650;BME280;13505;45.196;5.696;2023-09-30T17:16:57;99925.47;;;23.51;47.86
25650;BME280;13505;45.196;5.696;2023-09-30T17:21:49;99927.94;;;23.33;47.96
25650;BME280;13505;45.196;5.696;2023-09-30T17:26:39;99926.88;;;23.24;47.84
25650;BME280;13505;45.196;5.696;2023-09-30T17:31:31;99934.81;;;23.26;47.64
25650;BME280;13505;45.196;5.696;2023-09-30T17:36:21;99938.00;;;23.10;47.77
25650;BME280;13505;45.196;5.696;2023-09-30T17:41:11;99939.78;;;22.99;48.70
25650;BME280;13505;45.196;5.696;2023-09-30T17:46:12;99940.94;;;22.85;48.47
25650;BME280;13505;45.196;5.696;2023-09-30T17:51:03;99946.53;;;22.72;49.32
25650;BME280;13505;45.196;5.696;2023-09-30T17:55:54;99942.41;;;22.68;48.95
25650;BME280;13505;45.196;5.696;2023-09-30T18:00:48;99950.59;;;22.67;48.73
25650;BME280;13505;45.196;5.696;2023-09-30T18:05:39;99955.78;;;22.58;49.17
25650;BME280;13505;45.196;5.696;2023-09-30T18:10:29;99960.69;;;22.53;49.68
25650;BME280;13505;45.196;5.696;2023-09-30T18:15:20;99963.25;;;22.43;49.43
25650;BME280;13505;45.196;5.696;2023-09-30T18:20:11;99962.44;;;22.31;49.43
25650;BME280;13505;45.196;5.696;2023-09-30T18:25:01;99955.84;;;22.24;49.99
25650;BME280;13505;45.196;5.696;2023-09-30T18:29:51;99966.91;;;22.10;50.51
25650;BME280;13505;45.196;5.696;2023-09-30T18:34:42;99965.47;;;22.06;50.96
25650;BME280;13505;45.196;5.696;2023-09-30T18:39:32;99961.31;;;21.90;52.10
25650;BME280;13505;45.196;5.696;2023-09-30T18:44:22;99969.03;;;21.83;52.56
25650;BME280;13505;45.196;5.696;2023-09-30T18:49:13;99969.50;;;21.77;53.17
25650;BME280;13505;45.196;5.696;2023-09-30T18:54:03;99960.63;;;21.77;52.90
25650;BME280;13505;45.196;5.696;2023-09-30T18:58:54;99959.53;;;21.68;53.41
25650;BME280;13505;45.196;5.696;2023-09-30T19:03:44;99968.03;;;21.61;53.47
25650;BME280;13505;45.196;5.696;2023-09-30T19:08:34;99965.63;;;21.47;53.88
25650;BME280;13505;45.196;5.696;2023-09-30T19:13:25;99966.81;;;21.43;54.01
25650;BME280;13505;45.196;5.696;2023-09-30T19:18:15;99967.06;;;21.40;53.60
25650;BME280;13505;45.196;5.696;2023-09-30T19:23:06;99963.41;;;21.29;53.79
25650;BME280;13505;45.196;5.696;2023-09-30T19:27:59;99965.44;;;21.14;54.55
25650;BME280;13505;45.196;5.696;2023-09-30T19:32:49;99959.19;;;21.02;55.08
25650;BME280;13505;45.196;5.696;2023-09-30T19:37:39;99966.75;;;20.97;55.02
25650;BME280;13505;45.196;5.696;2023-09-30T19:42:30;99969.31;;;20.87;54.67
25650;BME280;13505;45.196;5.696;2023-09-30T19:47:21;99963.03;;;20.75;55.70
25650;BME280;13505;45.196;5.696;2023-09-30T19:52:13;99967.75;;;20.72;55.55
25650;BME280;13505;45.196;5.696;2023-09-30T19:57:05;99975.63;;;20.50;56.93
25650;BME280;13505;45.196;5.696;2023-09-30T20:01:55;99973.44;;;20.31;57.82
25650;BME280;13505;45.196;5.696;2023-09-30T20:06:47;99978.16;;;20.28;57.32
25650;BME280;13505;45.196;5.696;2023-09-30T20:11:40;100000.06;;;20.21;57.65
25650;BME280;13505;45.196;5.696;2023-09-30T20:16:31;100006.47;;;20.19;57.04
25650;BME280;13505;45.196;5.696;2023-09-30T20:21:22;99998.06;;;20.12;57.19
25650;BME280;13505;45.196;5.696;2023-09-30T20:26:12;100005.03;;;20.02;58.14
25650;BME280;13505;45.196;5.696;2023-09-30T20:31:08;99995.28;;;19.88;59.16
25650;BME280;13505;45.196;5.696;2023-09-30T20:35:59;100005.06;;;19.76;59.47
25650;BME280;13505;45.196;5.696;2023-09-30T20:40:50;100013.44;;;19.71;60.35
25650;BME280;13505;45.196;5.696;2023-09-30T20:45:40;100016.22;;;19.57;60.95
25650;BME280;13505;45.196;5.696;2023-09-30T20:50:30;100023.72;;;19.51;61.32
25650;BME280;13505;45.196;5.696;2023-09-30T20:55:21;100020.28;;;19.36;62.01
25650;BME280;13505;45.196;5.696;2023-09-30T21:00:12;100025.41;;;19.27;62.38
25650;BME280;13505;45.196;5.696;2023-09-30T21:05:03;100024.91;;;19.34;62.15
25650;BME280;13505;45.196;5.696;2023-09-30T21:09:56;100026.94;;;19.31;63.27
25650;BME280;13505;45.196;5.696;2023-09-30T21:14:46;100026.38;;;19.13;63.84
25650;BME280;13505;45.196;5.696;2023-09-30T21:19:37;100033.84;;;19.07;63.92
25650;BME280;13505;45.196;5.696;2023-09-30T21:24:27;100042.44;;;18.98;64.17
25650;BME280;13505;45.196;5.696;2023-09-30T21:29:17;100045.31;;;18.82;65.33
25650;BME280;13505;45.196;5.696;2023-09-30T21:34:08;100046.25;;;18.81;65.60
25650;BME280;13505;45.196;5.696;2023-09-30T21:38:58;100050.13;;;18.90;65.00
25650;BME280;13505;45.196;5.696;2023-09-30T21:43:49;100047.56;;;18.88;65.40
25650;BME280;13505;45.196;5.696;2023-09-30T21:48:40;100049.81;;;18.81;65.59
25650;BME280;13505;45.196;5.696;2023-09-30T21:53:31;100052.13;;;18.73;66.60
25650;BME280;13505;45.196;5.696;2023-09-30T21:58:22;100045.00;;;18.59;67.82
